Time;durP1;ratioP1;P1;durP2;ratioP2;P2;SDS_P1;SDS_P2;PMS_P1;PMS_P2;Temp;Humidity;BMP_temperature;BMP_pressure;BME280_temperature;BME280_humidity;BME280_pressure;Samples;Min_cycle;Max_cycle;Signal;HPM_P1;HPM_P2
2023/07/02 00:00:21;;;;;;;0.00;0.00;;;;;;;12.80;81.15;99914.88;5025613;28;20021;-76
2023/07/02 00:02:47;;;;;;;0.00;0.00;;;;;;;12.75;80.97;99916.56;5014716;28;20037;-76
2023/07/02 00:05:12;;;;;;;0.00;0.00;;;;;;;12.71;81.65;99911.97;5045957;28;20029;-76
2023/07/02 00:07:38;;;;;;;0.00;0.00;;;;;;;12.68;81.51;99913.38;4995117;28;20060;-75
2023/07/02 00:10:04;;;;;;;0.00;0.00;;;;;;;12.60;81.44;99911.28;5010123;28;20121;-76
2023/07/02 00:12:29;;;;;;;0.00;0.00;;;;;;;12.67;81.54;99911.72;5012182;28;20387;-76
2023/07/02 00:14:55;;;;;;;0.00;0.00;;;;;;;12.59;81.73;99906.91;5056707;28;20022;-74
2023/07/02 00:17:21;;;;;;;0.00;0.00;;;;;;;12.58;81.59;99908.81;5058058;28;20384;-76
2023/07/02 00:19:46;;;;;;;0.00;0.00;;;;;;;12.55;81.78;99914.06;5011737;28;20143;-75
2023/07/02 00:22:12;;;;;;;0.00;0.00;;;;;;;12.54;82.25;99912.44;5049469;28;20014;-75
2023/07/02 00:24:37;;;;;;;0.00;0.00;;;;;;;12.52;81.76;99911.91;5047559;28;20029;-76
2023/07/02 00:27:04;;;;;;;0.00;0.00;;;;;;;12.48;81.94;99919.09;5007113;28;20050;-76
2023/07/02 00:29:29;;;;;;;0.00;0.00;;;;;;;12.36;81.89;99906.59;5028610;28;20029;-76
2023/07/02 00:31:54;;;;;;;0.00;0.00;;;;;;;12.27;81.82;99905.59;5025280;28;20081;-76
2023/07/02 00:34:20;;;;;;;0.00;0.00;;;;;;;12.26;82.24;99905.88;5020744;28;20423;-76
2023/07/02 00:36:46;;;;;;;0.00;0.00;;;;;;;12.30;81.87;99910.50;5009875;28;20028;-76
2023/07/02 00:39:12;;;;;;;0.00;0.00;;;;;;;12.21;81.78;99904.03;5025627;28;20379;-76
2023/07/02 00:41:37;;;;;;;0.00;0.00;;;;;;;12.21;82.20;99915.00;5036205;28;20087;-76
2023/07/02 00:44:03;;;;;;;0.00;0.00;;;;;;;12.15;82.31;99916.13;5007817;28;20080;-76
2023/07/02 00:46:30;;;;;;;0.00;0.00;;;;;;;12.18;82.42;99919.13;5020912;28;20392;-76
2023/07/02 00:48:56;;;;;;;0.00;0.00;;;;;;;12.26;82.52;99912.19;5025886;28;20468;-76
2023/07/02 00:51:24;;;;;;;0.00;0.00;;;;;;;12.39;82.23;99922.47;5024352;28;20104;-77
2023/07/02 00:53:52;;;;;;;0.00;0.00;;;;;;;12.42;82.00;99917.53;5003342;28;20038;-76
2023/07/02 00:56:18;;;;;;;0.00;0.00;;;;;;;12.39;81.82;99910.69;5007421;28;20076;-76
2023/07/02 00:58:48;;;;;;;0.00;0.00;;;;;;;12.49;82.55;99920.72;5054025;28;20123;-76
2023/07/02 01:01:37;;;;;;;0.00;0.00;;;;;;;12.46;82.13;99922.13;5010802;28;20024;-76
2023/07/02 01:04:05;;;;;;;0.00;0.00;;;;;;;12.38;81.87;99915.34;5013671;28;20049;-76
2023/07/02 01:06:35;;;;;;;0.00;0.00;;;;;;;12.32;82.07;99932.94;5025273;28;20017;-76
2023/07/02 01:09:04;;;;;;;0.00;0.00;;;;;;;12.28;82.02;99920.94;5043207;28;20029;-76
2023/07/02 01:11:43;;;;;;;0.00;0.00;;;;;;;12.23;81.92;99934.69;5042347;28;20376;-75
2023/07/02 01:14:33;;;;;;;0.00;0.00;;;;;;;12.17;82.16;99935.84;5022468;28;20017;-76
2023/07/02 01:16:59;;;;;;;0.00;0.00;;;;;;;12.09;82.85;99939.22;5011314;28;20113;-75
2023/07/02 01:19:51;;;;;;;0.00;0.00;;;;;;;12.00;82.64;99934.38;5024418;28;20352;-76
2023/07/02 01:22:18;;;;;;;0.00;0.00;;;;;;;11.95;82.58;99939.88;5061245;28;20029;-75
2023/07/02 01:24:46;;;;;;;0.00;0.00;;;;;;;11.88;83.02;99940.19;5025096;28;20038;-76
2023/07/02 01:27:11;;;;;;;0.00;0.00;;;;;;;11.82;83.25;99946.00;5049105;28;20085;-74
2023/07/02 01:29:37;;;;;;;0.08;0.08;;;;;;;11.67;83.32;99938.72;5035548;28;20477;-75
2023/07/02 01:32:03;;;;;;;0.00;0.00;;;;;;;11.63;83.79;99938.44;5021917;28;20034;-76
2023/07/02 01:34:28;;;;;;;0.00;0.00;;;;;;;11.62;84.05;99950.53;5015563;28;20033;-75
2023/07/02 01:36:54;;;;;;;0.00;0.00;;;;;;;11.55;84.18;99950.03;5050364;28;20514;-75
2023/07/02 01:39:19;;;;;;;0.00;0.00;;;;;;;11.55;84.27;99951.91;4986832;28;20029;-75
2023/07/02 01:41:50;;;;;;;0.00;0.00;;;;;;;11.54;84.04;99953.84;5036400;28;20083;-75
2023/07/02 01:44:16;;;;;;;0.00;0.00;;;;;;;11.49;84.73;99953.88;5028554;28;20025;-74
2023/07/02 01:46:41;;;;;;;0.00;0.00;;;;;;;11.50;85.00;99950.84;5027664;28;20029;-73
2023/07/02 01:49:07;;;;;;;0.00;0.00;;;;;;;11.51;85.44;99948.94;5023178;28;20120;-75
2023/07/02 01:51:33;;;;;;;0.00;0.00;;;;;;;11.51;85.46;99954.44;5025967;28;20033;-74
2023/07/02 01:53:59;;;;;;;0.00;0.00;;;;;;;11.53;85.91;99954.94;5061328;28;20046;-75
2023/07/02 01:56:24;;;;;;;0.00;0.00;;;;;;;11.49;85.88;99949.25;5011766;28;20452;-76
2023/07/02 01:58:50;;;;;;;0.00;0.00;;;;;;;11.47;86.18;99945.13;5031760;28;20042;-75
2023/07/02 02:01:15;;;;;;;0.00;0.00;;;;;;;11.45;86.30;99944.63;5010096;28;20032;-76
2023/07/02 02:03:41;;;;;;;0.00;0.00;;;;;;;11.42;86.55;99948.72;5008301;28;20491;-75
2023/07/02 02:06:06;;;;;;;0.00;0.00;;;;;;;11.45;86.91;99948.16;5024829;28;20037;-75
2023/07/02 02:08:31;;;;;;;0.00;0.00;;;;;;;11.49;86.51;99949.25;5032062;28;20029;-74
2023/07/02 02:10:57;;;;;;;0.00;0.00;;;;;;;11.53;86.78;99950.31;4986429;28;20045;-74
2023/07/02 02:13:22;;;;;;;0.00;0.00;;;;;;;11.60;87.03;99955.44;5028376;28;20491;-74
2023/07/02 02:15:48;;;;;;;0.00;0.00;;;;;;;11.64;87.44;99955.72;5024901;28;20037;-75
2023/07/02 02:18:13;;;;;;;0.00;0.00;;;;;;;11.64;86.85;99955.72;5024977;28;20030;-75
2023/07/02 02:20:39;;;;;;;0.00;0.00;;;;;;;11.62;87.28;99950.53;5012978;28;21433;-76
2023/07/02 02:23:05;;;;;;;0.00;0.00;;;;;;;11.60;87.20;99955.44;5054206;28;20483;-75
2023/07/02 02:25:30;;;;;;;0.00;0.00;;;;;;;11.53;87.10;99952.22;5031497;28;20021;-75
2023/07/02 02:27:56;;;;;;;0.00;0.00;;;;;;;11.45;87.38;99961.84;5021722;28;20077;-75
2023/07/02 02:30:21;;;;;;;0.00;0.00;;;;;;;11.39;87.34;99956.69;5020838;28;20396;-75
2023/07/02 02:32:46;;;;;;;0.00;0.00;;;;;;;11.41;87.52;99957.22;5043813;28;20038;-75
2023/07/02 02:35:13;;;;;;;0.00;0.00;;;;;;;11.39;87.99;99953.94;5022604;28;20124;-75
2023/07/02 02:37:39;;;;;;;0.00;0.00;;;;;;;11.38;87.56;99963.28;5020684;28;20037;-75
2023/07/02 02:40:11;;;;;;;0.00;0.00;;;;;;;11.32;87.82;99957.81;5022422;28;20025;-75
2023/07/02 02:42:36;;;;;;;0.00;0.00;;;;;;;11.32;88.20;99960.56;5005443;28;20032;-76
2023/07/02 02:45:03;;;;;;;0.00;0.00;;;;;;;11.26;87.71;99958.94;5023958;28;20025;-76
2023/07/02 02:47:28;;;;;;;0.00;0.00;;;;;;;11.23;88.42;99962.25;5014630;28;20029;-75
2023/07/02 02:49:54;;;;;;;0.00;0.00;;;;;;;11.22;88.42;99962.53;5004792;28;20041;-75
2023/07/02 02:52:19;;;;;;;0.00;0.00;;;;;;;11.19;87.92;99958.44;5018582;28;20030;-75
2023/07/02 02:54:45;;;;;;;0.00;0.00;;;;;;;11.22;88.15;99960.59;5009998;28;20072;-76
2023/07/02 02:57:13;;;;;;;0.00;0.00;;;;;;;11.17;88.81;99957.91;5025511;28;20112;-75
2023/07/02 02:59:39;;;;;;;0.00;0.00;;;;;;;11.21;88.82;99958.97;5014753;28;20018;-75
2023/07/02 03:02:06;;;;;;;0.00;0.00;;;;;;;11.27;88.48;99966.06;5041332;28;20052;-76
2023/07/02 03:04:32;;;;;;;0.00;0.00;;;;;;;11.25;88.68;99954.56;5019542;28;20094;-74
2023/07/02 03:06:57;;;;;;;0.00;0.00;;;;;;;11.27;89.21;99952.38;5013342;28;20018;-75
2023/07/02 03:09:23;;;;;;;0.00;0.00;;;;;;;11.27;89.72;99963.34;5059841;28;20034;-75
2023/07/02 03:11:48;;;;;;;0.00;0.00;;;;;;;11.18;89.09;99954.06;5021306;28;20029;-75
2023/07/02 03:14:17;;;;;;;0.00;0.00;;;;;;;11.17;89.61;99958.72;5032763;28;20036;-76
2023/07/02 03:16:45;;;;;;;0.00;0.00;;;;;;;11.08;89.44;99960.41;5017523;28;20032;-76
2023/07/02 03:19:10;;;;;;;0.00;0.00;;;;;;;11.11;89.94;99970.78;4992203;28;20034;-76
2023/07/02 03:21:36;;;;;;;0.00;0.00;;;;;;;11.14;90.00;99969.38;5028677;28;20565;-75
2023/07/02 03:24:01;;;;;;;0.00;0.00;;;;;;;11.15;89.49;99976.50;5000135;28;20036;-75
2023/07/02 03:26:27;;;;;;;0.00;0.00;;;;;;;11.10;89.69;99969.16;5010271;28;20050;-76
2023/07/02 03:28:52;;;;;;;0.00;0.00;;;;;;;11.08;89.77;99970.53;5054095;28;20040;-76
2023/07/02 03:31:18;;;;;;;0.00;0.00;;;;;;;11.08;89.74;99976.00;5053621;28;20488;-75
2023/07/02 03:33:43;;;;;;;0.00;0.00;;;;;;;11.04;90.35;99966.69;5023058;28;20887;-73
2023/07/02 03:36:09;;;;;;;0.08;0.08;;;;;;;11.04;90.32;99972.19;5043281;28;20472;-75
2023/07/02 03:38:34;;;;;;;0.00;0.00;;;;;;;10.99;90.32;99968.38;5009899;28;20476;-75
2023/07/02 03:40:59;;;;;;;0.10;0.10;;;;;;;11.07;90.20;99983.41;5020680;28;20029;-74
2023/07/02 03:43:25;;;;;;;0.00;0.00;;;;;;;11.14;90.54;99981.19;5041278;28;20033;-75
2023/07/02 03:45:54;;;;;;;0.00;0.00;;;;;;;11.22;90.42;99982.50;5036598;28;20037;-75
2023/07/02 03:48:19;;;;;;;0.00;0.00;;;;;;;11.26;89.54;99986.31;5028123;28;20026;-74
2023/07/02 03:50:45;;;;;;;0.00;0.00;;;;;;;11.26;89.39;99983.59;5006230;28;20030;-76
2023/07/02 03:53:10;;;;;;;0.00;0.00;;;;;;;11.33;89.85;99994.22;5039044;28;20084;-75
2023/07/02 03:55:38;;;;;;;0.00;0.00;;;;;;;11.42;89.08;99991.69;4994318;28;20049;-77
2023/07/02 03:58:04;;;;;;;0.00;0.00;;;;;;;11.45;88.93;99985.69;5006845;28;20033;-77
2023/07/02 04:00:29;;;;;;;0.00;0.00;;;;;;;11.53;88.66;99976.84;4995602;28;20029;-76
2023/07/02 04:02:55;;;;;;;0.00;0.00;;;;;;;11.68;88.18;99984.16;5006630;28;20124;-76
2023/07/02 04:05:20;;;;;;;0.00;0.00;;;;;;;11.77;88.32;99996.16;5033592;28;20101;-76
2023/07/02 04:07:46;;;;;;;0.00;0.00;;;;;;;11.78;87.76;99980.53;5035561;28;20021;-76
2023/07/02 04:10:11;;;;;;;0.00;0.00;;;;;;;11.89;88.11;99993.06;5003676;28;20026;-77
2023/07/02 04:12:37;;;;;;;0.00;0.00;;;;;;;11.97;87.36;99989.75;5026834;28;20412;-76
2023/07/02 04:15:05;;;;;;;0.00;0.00;;;;;;;12.01;87.38;99993.53;5020949;28;20077;-77
2023/07/02 04:17:31;;;;;;;0.00;0.00;;;;;;;12.10;87.41;99988.25;5037490;28;20029;-76
2023/07/02 04:20:00;;;;;;;0.00;0.00;;;;;;;12.18;86.84;99992.31;4995279;28;20079;-76
2023/07/02 04:22:25;;;;;;;0.00;0.00;;;;;;;12.22;86.72;99991.44;5005664;28;20072;-76
2023/07/02 04:24:51;;;;;;;0.00;0.00;;;;;;;12.27;86.27;100006.22;5016874;28;20033;-76
2023/07/02 04:27:21;;;;;;;0.00;0.00;;;;;;;12.28;86.43;100000.44;5021973;28;20510;-75
2023/07/02 04:29:47;;;;;;;0.00;0.00;;;;;;;12.35;85.64;100008.31;5025462;28;20045;-75
2023/07/02 04:32:12;;;;;;;0.00;0.00;;;;;;;12.40;85.86;100011.84;5013530;28;20042;-75
2023/07/02 04:34:38;;;;;;;0.00;0.00;;;;;;;12.40;85.54;100009.09;5036806;28;20022;-76
2023/07/02 04:37:04;;;;;;;0.00;0.00;;;;;;;12.26;85.73;99986.19;4990674;28;20392;-75
2023/07/02 04:39:30;;;;;;;0.00;0.00;;;;;;;12.46;85.74;100017.28;5024349;28;20120;-74
2023/07/02 04:41:55;;;;;;;0.00;0.00;;;;;;;12.42;85.25;100008.81;5038281;28;20033;-75
2023/07/02 04:44:29;;;;;;;0.00;0.00;;;;;;;12.48;85.27;100017.81;5053560;28;20029;-75
2023/07/02 04:47:03;;;;;;;0.00;0.00;;;;;;;12.48;84.91;100017.81;5029886;28;20033;-74
2023/07/02 04:49:28;;;;;;;;;;;;;;;12.52;85.22;100024.38;5048454;28;20025;-75
2023/07/02 04:51:54;;;;;;;0.00;0.00;;;;;;;12.53;84.97;100024.06;5026755;28;19920;-75
2023/07/02 04:54:21;;;;;;;0.00;0.00;;;;;;;12.58;85.13;100025.94;5008156;28;20084;-76
2023/07/02 04:56:46;;;;;;;0.00;0.00;;;;;;;12.56;84.66;100020.75;5010950;28;20026;-75
2023/07/02 04:59:12;;;;;;;0.00;0.00;;;;;;;12.60;84.41;100022.91;5018406;28;20037;-75
2023/07/02 05:01:37;;;;;;;0.00;0.00;;;;;;;12.61;84.43;100017.13;5011852;28;20030;-75
2023/07/02 05:04:03;;;;;;;0.00;0.00;;;;;;;12.68;84.61;100017.59;5044580;28;20057;-76
2023/07/02 05:06:29;;;;;;;0.00;0.00;;;;;;;12.73;83.83;100031.28;5007186;28;20055;-76
2023/07/02 05:08:54;;;;;;;0.00;0.00;;;;;;;12.78;84.07;100035.09;5028909;28;20192;-75
2023/07/02 05:11:20;;;;;;;0.00;0.00;;;;;;;12.85;83.83;100030.06;5045936;28;20029;-75
2023/07/02 05:13:45;;;;;;;0.00;0.00;;;;;;;12.85;83.81;100030.06;5046351;28;20464;-75
2023/07/02 05:16:10;;;;;;;0.00;0.00;;;;;;;12.95;83.50;100043.66;5025932;28;20033;-76
2023/07/02 05:18:36;;;;;;;0.00;0.00;;;;;;;12.97;83.45;100037.91;5025840;28;20041;-76
2023/07/02 05:21:01;;;;;;;0.00;0.00;;;;;;;13.00;82.96;100029.91;5028728;28;20448;-76
2023/07/02 05:23:27;;;;;;;0.00;0.00;;;;;;;13.12;82.91;100031.41;5040357;28;20052;-75
2023/07/02 05:25:52;;;;;;;0.00;0.00;;;;;;;13.21;82.57;100040.63;5028019;28;20483;-77
2023/07/02 05:28:17;;;;;;;0.00;0.00;;;;;;;13.25;82.60;100041.69;5028434;28;20103;-75
2023/07/02 05:30:43;;;;;;;0.00;0.00;;;;;;;13.36;82.14;100048.72;5030384;28;20056;-76
2023/07/02 05:33:09;;;;;;;0.00;0.00;;;;;;;13.38;81.80;100046.50;5019445;28;20033;-77
2023/07/02 05:35:34;;;;;;;0.00;0.00;;;;;;;13.52;81.73;100045.78;5039506;28;20050;-75
2023/07/02 05:38:00;;;;;;;0.00;0.00;;;;;;;13.54;81.79;100049.88;5037816;28;20033;-75
2023/07/02 05:40:25;;;;;;;0.00;0.00;;;;;;;13.63;81.40;100041.78;5048632;28;20037;-76
2023/07/02 05:42:51;;;;;;;0.00;0.00;;;;;;;13.74;81.23;100045.19;5044229;28;20025;-74
2023/07/02 05:45:16;;;;;;;0.00;0.00;;;;;;;13.81;80.51;100042.09;5031190;28;20029;-75
2023/07/02 05:47:41;;;;;;;0.00;0.00;;;;;;;13.91;80.13;100048.25;5022993;28;20025;-75
2023/07/02 05:50:08;;;;;;;0.00;0.00;;;;;;;14.01;80.24;100055.53;5040271;28;20037;-77
2023/07/02 05:52:33;;;;;;;0.00;0.00;;;;;;;13.97;79.95;100040.72;5017798;28;20377;-76
2023/07/02 05:54:58;;;;;;;0.00;0.00;;;;;;;14.20;79.53;100065.69;5029709;28;20021;-74
2023/07/02 05:57:24;;;;;;;0.00;0.00;;;;;;;14.29;79.44;100052.88;5011342;28;20060;-74
2023/07/02 05:59:49;;;;;;;0.00;0.00;;;;;;;14.42;79.26;100056.81;5034327;28;20026;-76
2023/07/02 06:02:15;;;;;;;0.00;0.00;;;;;;;14.54;78.71;100070.09;4993825;28;20026;-76
2023/07/02 06:04:40;;;;;;;0.00;0.00;;;;;;;14.65;78.37;100071.59;4983041;28;20038;-77
2023/07/02 06:07:05;;;;;;;0.00;0.00;;;;;;;14.69;77.99;100067.13;5051914;28;20052;-75
2023/07/02 06:09:32;;;;;;;0.00;0.00;;;;;;;14.75;77.47;100070.59;5036127;28;20029;-75
2023/07/02 06:11:58;;;;;;;0.00;0.00;;;;;;;14.87;77.22;100072.84;5005687;28;20255;-76
2023/07/02 06:14:25;;;;;;;0.00;0.00;;;;;;;14.98;77.02;100077.88;5027411;28;20045;-75
2023/07/02 06:16:52;;;;;;;0.00;0.00;;;;;;;15.07;76.54;100072.47;5042401;28;20109;-76
2023/07/02 06:19:20;;;;;;;0.00;0.00;;;;;;;15.15;76.78;100063.47;5023141;28;20029;-76
2023/07/02 06:21:46;;;;;;;0.00;0.00;;;;;;;15.27;75.77;100075.94;5032372;28;20117;-76
2023/07/02 06:24:12;;;;;;;0.00;0.00;;;;;;;15.39;75.24;100068.00;5036704;28;20365;-76
2023/07/02 06:26:37;;;;;;;0.00;0.00;;;;;;;15.63;74.72;100077.97;5027091;28;20073;-75
2023/07/02 06:29:06;;;;;;;0.00;0.00;;;;;;;15.86;74.12;100082.44;5036005;28;20167;-76
2023/07/02 06:31:31;;;;;;;0.00;0.00;;;;;;;15.91;73.57;100084.25;5019227;28;20037;-75
2023/07/02 06:34:03;;;;;;;0.00;0.00;;;;;;;15.91;73.01;100086.22;5018660;28;20042;-76
2023/07/02 06:36:30;;;;;;;0.00;0.00;;;;;;;15.87;73.06;100077.72;5041198;28;20500;-77
2023/07/02 06:38:56;;;;;;;0.00;0.00;;;;;;;15.88;72.87;100068.34;5025469;28;20033;-76
2023/07/02 06:41:27;;;;;;;0.00;0.00;;;;;;;16.05;72.32;100084.22;5014765;28;20021;-77
2023/07/02 06:43:52;;;;;;;0.00;0.00;;;;;;;16.40;71.31;100090.84;5011023;28;20035;-77
2023/07/02 06:46:26;;;;;;;0.00;0.00;;;;;;;16.73;70.60;100084.22;5026698;28;20037;-76
2023/07/02 06:48:52;;;;;;;;;;;;;;;16.87;69.14;100092.44;5020030;28;20026;-76
2023/07/02 06:51:25;;;;;;;0.00;0.00;;;;;;;16.80;68.25;100079.06;5007539;28;19963;-76
2023/07/02 06:53:50;;;;;;;0.00;0.00;;;;;;;16.79;67.37;100084.91;5005089;28;20435;-76
2023/07/02 06:56:15;;;;;;;0.00;0.00;;;;;;;17.07;66.73;100083.63;4991181;28;20116;-76
2023/07/02 06:58:44;;;;;;;0.00;0.00;;;;;;;17.42;66.60;100091.22;5026114;28;20495;-75
2023/07/02 07:01:09;;;;;;;0.00;0.00;;;;;;;17.57;64.93;100095.53;5025056;28;20061;-76
2023/07/02 07:03:36;;;;;;;0.00;0.00;;;;;;;17.50;64.97;100095.97;5023759;28;20475;-76
2023/07/02 07:06:02;;;;;;;0.00;0.00;;;;;;;17.51;64.86;100096.78;5037325;28;20060;-78
2023/07/02 07:08:27;;;;;;;0.00;0.00;;;;;;;17.22;64.48;100098.97;5052038;28;20122;-76
2023/07/02 07:10:53;;;;;;;0.00;0.00;;;;;;;17.06;64.42;100098.56;5007493;28;20404;-76
2023/07/02 07:13:18;;;;;;;0.00;0.00;;;;;;;17.03;64.21;100098.41;5035152;28;20501;-77
2023/07/02 07:15:49;;;;;;;0.00;0.00;;;;;;;17.10;63.87;100096.00;5047578;28;20491;-76
2023/07/02 07:18:14;;;;;;;0.00;0.00;;;;;;;17.44;62.97;100092.53;5025972;28;20506;-75
2023/07/02 07:20:49;;;;;;;0.00;0.00;;;;;;;17.73;61.58;100096.69;5052983;28;20120;-77
2023/07/02 07:23:24;;;;;;;0.00;0.00;;;;;;;17.87;60.39;100102.09;5055967;28;20029;-76
2023/07/02 07:25:50;;;;;;;0.00;0.00;;;;;;;17.95;60.85;100094.97;5023531;28;20034;-77
2023/07/02 07:28:22;;;;;;;0.00;0.00;;;;;;;18.02;60.02;100088.94;5051371;28;20480;-77
2023/07/02 07:30:52;;;;;;;0.00;0.00;;;;;;;18.11;60.08;100100.84;5027987;28;20144;-76
2023/07/02 07:33:20;;;;;;;0.00;0.00;;;;;;;18.10;58.95;100110.28;5053816;28;20042;-75
2023/07/02 07:36:08;;;;;;;0.00;0.00;;;;;;;18.09;58.88;100112.25;5002874;28;20156;-78
2023/07/02 07:38:36;;;;;;;0.00;0.00;;;;;;;17.95;58.02;100101.31;5016685;28;20033;-79
2023/07/02 07:41:05;;;;;;;0.00;0.00;;;;;;;17.82;57.50;100099.47;5034059;28;20105;-77
2023/07/02 07:44:01;;;;;;;0.00;0.00;;;;;;;17.79;58.23;100112.00;5017366;28;20120;-80
2023/07/02 07:46:57;;;;;;;0.00;0.00;;;;;;;17.62;57.61;100103.66;5030341;28;20057;-80
2023/07/02 07:49:57;;;;;;;0.00;0.00;;;;;;;17.51;57.47;100075.50;5020068;28;20117;-80
2023/07/02 07:52:40;;;;;;;0.00;0.00;;;;;;;17.66;57.51;100098.31;5038437;28;20025;-79
2023/07/02 07:55:22;;;;;;;;;;;;;;;;;;;;;
2023/07/02 07:58:49;;;;;;;0.00;0.00;;;;;;;17.26;57.10;100091.69;5019875;28;20617;-79
2023/07/02 08:01:34;;;;;;;;;;;;;;;;;;;;;
2023/07/02 08:04:23;;;;;;;0.00;0.00;;;;;;;17.41;56.23;100111.72;5011762;28;20030;-80
2023/07/02 08:06:51;;;;;;;0.00;0.00;;;;;;;17.70;56.83;100125.00;5036478;28;20022;-80
2023/07/02 08:10:10;;;;;;;;;;;;;;;;;;;;;
2023/07/02 08:12:30;;;;;;;0.00;0.00;;;;;;;18.08;55.27;100107.84;5019751;28;20038;-79
2023/07/02 08:14:56;;;;;;;0.00;0.00;;;;;;;18.06;54.34;100092.69;5036407;28;20029;-78
2023/07/02 08:17:34;;;;;;;;;;;;;;;;;;;;;
2023/07/02 08:20:19;;;;;;;;;;;;;;;;;;;;;
2023/07/02 08:22:49;;;;;;;0.00;0.00;;;;;;;18.45;54.20;100099.19;5053844;28;20037;-79
2023/07/02 08:25:21;;;;;;;0.00;0.00;;;;;;;18.50;53.95;100110.13;5035868;28;20037;-78
2023/07/02 08:27:52;;;;;;;0.00;0.00;;;;;;;18.61;54.04;100121.66;4996212;28;20057;-78
2023/07/02 08:30:35;;;;;;;0.00;0.00;;;;;;;18.62;52.97;100115.00;5026953;28;20025;-78
2023/07/02 08:33:01;;;;;;;0.00;0.00;;;;;;;18.46;53.26;100125.75;5023231;28;20030;-78
2023/07/02 08:35:29;;;;;;;0.00;0.00;;;;;;;18.35;53.68;100099.53;5021493;28;20159;-79
2023/07/02 08:37:59;;;;;;;0.00;0.00;;;;;;;18.27;52.75;100099.22;5030401;28;20044;-79
2023/07/02 08:48:03;;;;;;;;;;;;;;;;;;;;;
2023/07/02 08:51:06;;;;;;;0.00;0.00;;;;;;;19.58;50.39;100100.00;5015945;28;20086;-79
2023/07/02 08:57:06;;;;;;;0.00;0.00;;;;;;;20.42;48.54;100104.84;5005865;28;20038;-77
2023/07/02 09:00:19;;;;;;;0.00;0.00;;;;;;;20.51;48.61;100125.00;5017368;28;20045;-78
2023/07/02 09:03:01;;;;;;;0.00;0.00;;;;;;;20.08;48.41;100090.06;5014659;28;20160;-79
2023/07/02 09:05:30;;;;;;;0.00;0.00;;;;;;;20.16;48.83;100103.09;5013502;28;20469;-79
2023/07/02 09:08:37;;;;;;;;;;;;;;;;;;;;;
2023/07/02 09:11:17;;;;;;;0.00;0.00;;;;;;;19.47;49.53;100082.94;5019863;28;20388;-80
2023/07/02 09:13:58;;;;;;;0.00;0.00;;;;;;;19.46;50.10;100104.31;5025916;28;20022;-79
2023/07/02 09:16:39;;;;;;;0.00;0.00;;;;;;;19.31;50.39;100100.13;5021348;28;20033;-79
2023/07/02 09:19:08;;;;;;;0.00;0.00;;;;;;;19.46;50.19;100134.81;5013631;28;20017;-79
2023/07/02 09:21:55;;;;;;;0.00;0.00;;;;;;;19.23;50.62;100123.19;5026934;28;20107;-78
2023/07/02 09:24:57;;;;;;;0.00;0.00;;;;;;;18.97;50.69;100114.97;5011668;28;20111;-78
2023/07/02 09:27:40;;;;;;;0.00;0.00;;;;;;;18.83;50.81;100127.00;5046844;28;20100;-78
2023/07/02 09:34:18;;;;;;;;;;;;;;;;;;;;;
2023/07/02 09:37:24;;;;;;;;;;;;;;;;;;;;;
2023/07/02 09:39:56;;;;;;;0.00;0.00;;;;;;;18.93;50.72;100098.16;5013922;28;20030;-77
2023/07/02 09:42:48;;;;;;;0.00;0.00;;;;;;;18.91;51.23;100094.91;5017780;28;20041;-75
2023/07/02 09:45:34;;;;;;;0.00;0.00;;;;;;;18.84;51.18;100089.03;5017252;28;20022;-76
2023/07/02 09:48:03;;;;;;;0.00;0.00;;;;;;;18.88;51.45;100084.50;5012132;28;20044;-76
2023/07/02 09:50:31;;;;;;;0.00;0.00;;;;;;;19.10;50.98;100107.56;5032573;28;20037;-74
2023/07/02 09:52:59;;;;;;;0.00;0.00;;;;;;;19.01;50.74;100089.03;5047164;28;20433;-74
2023/07/02 09:55:28;;;;;;;0.00;0.00;;;;;;;19.06;50.38;100118.50;5028895;28;20057;-73
2023/07/02 09:57:53;;;;;;;0.00;0.00;;;;;;;19.04;51.18;100126.34;5021242;28;20017;-73
2023/07/02 10:00:19;;;;;;;0.00;0.00;;;;;;;18.89;50.76;100118.56;5039569;28;20076;-72
2023/07/02 10:02:51;;;;;;;0.00;0.00;;;;;;;18.74;51.78;100123.44;5017885;28;20026;-74
2023/07/02 10:05:30;;;;;;;0.00;0.00;;;;;;;18.74;51.88;100122.63;5006581;28;20522;-73
2023/07/02 10:07:57;;;;;;;0.00;0.00;;;;;;;18.73;51.98;100116.25;5013253;28;20108;-74
2023/07/02 10:10:34;;;;;;;0.00;0.00;;;;;;;18.79;51.59;100126.03;5047268;28;20116;-74
2023/07/02 10:12:59;;;;;;;0.00;0.00;;;;;;;18.88;52.00;100126.06;5041484;28;20029;-74
2023/07/02 10:15:26;;;;;;;0.00;0.00;;;;;;;19.26;51.80;100132.78;5013413;28;20029;-73
2023/07/02 10:17:59;;;;;;;0.00;0.00;;;;;;;19.52;50.79;100125.19;5029553;28;20026;-75
2023/07/02 10:20:37;;;;;;;0.00;0.00;;;;;;;19.34;50.79;100129.97;5012009;28;20036;-75
2023/07/02 10:23:05;;;;;;;0.00;0.00;;;;;;;19.13;51.56;100131.88;5041361;28;20045;-74
2023/07/02 10:25:37;;;;;;;0.00;0.00;;;;;;;18.96;51.67;100130.75;5020685;28;20041;-74
2023/07/02 10:28:22;;;;;;;0.00;0.00;;;;;;;18.89;51.98;100130.44;5028551;28;20046;-75
2023/07/02 10:30:47;;;;;;;0.00;0.00;;;;;;;18.87;52.38;100132.72;5010654;28;20026;-75
2023/07/02 10:33:17;;;;;;;0.00;0.00;;;;;;;19.48;51.37;100123.41;5018178;28;20032;-75
2023/07/02 10:35:46;;;;;;;0.00;0.00;;;;;;;20.57;49.44;100129.19;5021542;28;20493;-75
2023/07/02 10:38:23;;;;;;;0.00;0.00;;;;;;;21.30;47.94;100130.56;5022343;28;20026;-74
2023/07/02 10:41:02;;;;;;;0.00;0.00;;;;;;;21.75;45.25;100126.91;5003922;28;20026;-75
2023/07/02 10:43:30;;;;;;;0.00;0.00;;;;;;;22.14;44.41;100120.94;5024779;28;20048;-73
2023/07/02 10:45:59;;;;;;;0.00;0.00;;;;;;;22.23;43.58;100124.38;5018162;28;20208;-74
2023/07/02 10:48:25;;;;;;;0.00;0.00;;;;;;;21.85;43.42;100124.81;5045762;28;20030;-74
2023/07/02 10:50:50;;;;;;;0.00;0.00;;;;;;;21.20;43.96;100119.91;5050364;28;20030;-74
2023/07/02 10:53:19;;;;;;;0.00;0.00;;;;;;;20.78;45.70;100109.75;5022219;28;20021;-74
2023/07/02 10:55:45;;;;;;;0.00;0.00;;;;;;;20.83;44.61;100114.28;5015983;28;20029;-74
2023/07/02 10:58:14;;;;;;;0.00;0.00;;;;;;;20.85;43.62;100120.28;5030274;28;20416;-75
2023/07/02 11:00:52;;;;;;;0.00;0.00;;;;;;;21.52;39.91;100117.41;5023681;28;20041;-74
2023/07/02 11:03:28;;;;;;;0.00;0.00;;;;;;;21.70;39.74;100118.81;5013740;28;21842;-74
2023/07/02 11:06:02;;;;;;;0.00;0.00;;;;;;;21.57;37.72;100112.44;5024376;28;20041;-74
2023/07/02 11:08:39;;;;;;;0.00;0.00;;;;;;;20.96;37.77;100129.81;5030471;28;20041;-73
2023/07/02 11:11:08;;;;;;;0.00;0.00;;;;;;;20.99;38.86;100114.44;5015158;28;20030;-74
2023/07/02 11:13:52;;;;;;;0.00;0.00;;;;;;;23.36;34.96;100120.72;5008703;28;20148;-75
2023/07/02 11:16:26;;;;;;;;;;;;;;;27.78;28.32;100140.31;5015218;28;20109;-75
2023/07/02 11:19:09;;;;;;;0.00;0.00;;;;;;;27.68;27.02;100124.97;5014353;28;19917;-74
2023/07/02 11:21:35;;;;;;;0.00;0.00;;;;;;;25.75;28.26;100113.19;5040218;28;20037;-74
2023/07/02 11:24:03;;;;;;;0.00;0.00;;;;;;;26.14;27.94;100135.38;5015996;28;20029;-75
2023/07/02 11:26:49;;;;;;;0.00;0.00;;;;;;;25.65;28.96;100119.41;5024145;28;20049;-74
2023/07/02 11:29:19;;;;;;;0.00;0.00;;;;;;;25.71;29.17;100117.91;5026558;28;20525;-74
2023/07/02 11:31:50;;;;;;;0.00;0.00;;;;;;;25.84;28.51;100119.31;5025421;28;20088;-75
2023/07/02 11:34:18;;;;;;;0.00;0.00;;;;;;;26.04;27.65;100130.44;5024801;28;20037;-74
2023/07/02 11:36:45;;;;;;;0.00;0.00;;;;;;;25.13;28.97;100102.97;5016136;28;20029;-74
2023/07/02 11:39:12;;;;;;;0.00;0.00;;;;;;;24.19;30.71;100109.50;5028337;28;20037;-75
2023/07/02 11:41:43;;;;;;;0.00;0.00;;;;;;;24.35;31.11;100105.84;5002733;28;20036;-74
2023/07/02 11:44:10;;;;;;;0.00;0.00;;;;;;;24.28;31.29;100100.91;5016889;28;20075;-74
2023/07/02 11:46:35;;;;;;;0.00;0.00;;;;;;;24.55;31.23;100110.25;5005107;28;20034;-76
2023/07/02 11:49:02;;;;;;;0.00;0.00;;;;;;;24.54;31.32;100128.19;5020104;28;20033;-75
2023/07/02 11:51:28;;;;;;;0.00;0.00;;;;;;;24.11;32.35;100101.34;5028994;28;20029;-74
2023/07/02 11:53:53;;;;;;;0.00;0.00;;;;;;;23.73;32.29;100102.84;4992380;28;20037;-74
2023/07/02 11:56:19;;;;;;;0.00;0.00;;;;;;;25.32;30.62;100099.31;5017370;28;20048;-73
2023/07/02 11:58:44;;;;;;;0.00;0.00;;;;;;;27.75;27.62;100106.59;5020418;28;20075;-72
2023/07/02 12:01:10;;;;;;;0.00;0.00;;;;;;;26.46;28.21;100101.34;5021314;28;20021;-73
2023/07/02 12:03:35;;;;;;;0.00;0.00;;;;;;;25.22;30.25;100113.91;5015947;28;20041;-73
2023/07/02 12:06:01;;;;;;;0.00;0.00;;;;;;;24.80;30.73;100107.16;5040522;28;20563;-74
2023/07/02 12:08:27;;;;;;;0.00;0.00;;;;;;;26.41;29.12;100118.50;5033089;28;20103;-73